createdAt,value
2022-09-22T00:01:33.375Z,5.88
2022-09-22T00:04:06.106Z,5.85
2022-09-22T00:06:37.715Z,5.78
2022-09-22T00:09:10.044Z,5.82
2022-09-22T00:11:41.019Z,5.48
2022-09-22T00:14:11.754Z,5.77
2022-09-22T00:16:42.687Z,5.78
2022-09-22T00:19:16.795Z,5.78
2022-09-22T00:21:45.212Z,5.77
2022-09-22T00:24:15.659Z,5.77
2022-09-22T00:26:44.237Z,5.77
2022-09-22T00:29:13.827Z,5.60
2022-09-22T00:31:43.427Z,5.75
2022-09-22T00:34:16.751Z,5.42
2022-09-22T00:36:45.499Z,5.54
2022-09-22T00:39:16.039Z,5.52
2022-09-22T00:41:46.563Z,5.71
2022-09-22T00:44:34.218Z,5.70
2022-09-22T00:47:07.790Z,5.56
2022-09-22T00:49:42.696Z,5.68
2022-09-22T00:52:12.643Z,5.64
2022-09-22T00:54:42.622Z,5.63
2022-09-22T00:57:15.627Z,5.60
2022-09-22T00:59:45.903Z,5.56
2022-09-22T01:02:14.610Z,5.54
2022-09-22T01:04:43.704Z,5.54
2022-09-22T01:07:14.120Z,5.51
2022-09-22T01:09:43.939Z,5.50
2022-09-22T01:12:13.172Z,5.51
2022-09-22T01:14:54.943Z,5.51
2022-09-22T01:17:30.991Z,5.50
2022-09-22T01:20:35.040Z,5.51
2022-09-22T01:23:39.914Z,5.33
2022-09-22T01:26:31.512Z,5.36
2022-09-22T01:29:26.439Z,5.38
2022-09-22T01:32:04.169Z,5.38
2022-09-22T01:34:38.000Z,5.07
2022-09-22T01:37:14.373Z,5.40
2022-09-22T01:39:46.903Z,5.41
2022-09-22T01:42:19.721Z,5.39
2022-09-22T01:44:53.219Z,5.37
2022-09-22T01:47:28.474Z,5.36
2022-09-22T01:50:02.006Z,5.10
2022-09-22T01:52:34.736Z,5.16
2022-09-22T01:55:07.683Z,5.29
2022-09-22T01:57:42.925Z,5.27
2022-09-22T02:00:12.792Z,5.27
2022-09-22T02:02:48.044Z,5.28
2022-09-22T02:05:22.407Z,4.55
2022-09-22T02:07:55.291Z,5.27
2022-09-22T02:10:31.859Z,5.29
2022-09-22T02:13:01.376Z,5.28
2022-09-22T02:15:47.796Z,5.25
2022-09-22T02:18:23.219Z,5.20
2022-09-22T02:20:52.039Z,5.23
2022-09-22T02:23:20.737Z,5.18
2022-09-22T02:25:50.823Z,5.16
2022-09-22T02:28:23.874Z,5.02
2022-09-22T02:31:18.597Z,5.07
2022-09-22T02:33:46.244Z,4.85
2022-09-22T02:36:32.314Z,5.17
2022-09-22T02:39:07.635Z,4.95
2022-09-22T02:41:47.448Z,5.15
2022-09-22T02:44:21.486Z,5.14
2022-09-22T02:46:57.326Z,5.12
2022-09-22T02:49:29.407Z,5.13
2022-09-22T02:51:58.016Z,5.11
2022-09-22T02:54:26.492Z,5.09
2022-09-22T02:56:55.247Z,5.06
2022-09-22T02:59:23.657Z,4.82
2022-09-22T03:01:52.031Z,4.90
2022-09-22T03:04:20.467Z,4.95
2022-09-22T03:06:50.663Z,4.94
2022-09-22T03:09:19.062Z,4.97
2022-09-22T03:11:48.444Z,4.99
2022-09-22T03:14:16.815Z,4.94
2022-09-22T03:16:45.475Z,4.78
2022-09-22T03:19:14.199Z,4.95
2022-09-22T03:21:42.871Z,4.90
2022-09-22T03:24:12.675Z,4.90
2022-09-22T03:26:41.106Z,4.71
2022-09-22T03:29:09.454Z,4.91
2022-09-22T03:31:37.852Z,4.92
2022-09-22T03:34:06.845Z,4.92
2022-09-22T03:36:35.440Z,4.68
2022-09-22T03:39:03.839Z,4.90
2022-09-22T03:41:33.933Z,4.89
2022-09-22T03:44:02.462Z,4.91
2022-09-22T03:46:31.209Z,4.88
2022-09-22T03:48:59.587Z,4.86
2022-09-22T03:51:28.060Z,4.87
2022-09-22T03:53:57.087Z,4.86
2022-09-22T03:56:25.545Z,4.84
2022-09-22T03:58:55.415Z,4.86
2022-09-22T04:01:23.936Z,4.85
2022-09-22T04:03:53.125Z,4.84
2022-09-22T04:06:21.672Z,4.83
2022-09-22T04:08:50.290Z,4.83
2022-09-22T04:11:18.634Z,4.48
2022-09-22T04:13:47.147Z,4.85
2022-09-22T04:16:17.277Z,4.83
2022-09-22T04:18:45.732Z,4.75
2022-09-22T04:21:14.347Z,4.82
2022-09-22T04:23:42.843Z,4.82
2022-09-22T04:26:11.254Z,4.82
2022-09-22T04:28:39.652Z,4.23
2022-09-22T04:31:08.284Z,4.79
2022-09-22T04:33:38.484Z,4.71
2022-09-22T04:36:07.695Z,4.77
2022-09-22T04:38:36.171Z,4.73
2022-09-22T04:41:04.623Z,4.74
2022-09-22T04:43:33.040Z,4.73
2022-09-22T04:46:01.936Z,4.20
2022-09-22T04:48:30.327Z,4.71
2022-09-22T04:51:00.125Z,4.54
2022-09-22T04:53:28.920Z,4.68
2022-09-22T04:55:57.632Z,4.66
2022-09-22T04:58:26.891Z,4.62
2022-09-22T05:00:56.026Z,4.63
2022-09-22T05:03:24.564Z,4.61
2022-09-22T05:05:52.989Z,4.51
2022-09-22T05:08:23.163Z,4.60
2022-09-22T05:10:51.549Z,4.24
2022-09-22T05:13:20.312Z,4.61
2022-09-22T05:15:48.661Z,4.64
2022-09-22T05:18:17.084Z,4.63
2022-09-22T05:20:46.015Z,4.65
2022-09-22T05:23:14.539Z,4.66
2022-09-22T05:25:44.402Z,4.68
2022-09-22T05:28:13.976Z,4.68
2022-09-22T05:30:42.482Z,4.70
2022-09-22T05:33:10.928Z,4.54
2022-09-22T05:35:39.284Z,4.74
2022-09-22T05:38:07.614Z,4.51
2022-09-22T05:40:35.999Z,4.77
2022-09-22T05:43:06.042Z,4.78
2022-09-22T05:45:34.427Z,4.81
2022-09-22T05:48:03.403Z,4.85
2022-09-22T05:50:31.897Z,4.87
2022-09-22T05:53:08.041Z,4.90
2022-09-22T05:55:37.085Z,4.70
2022-09-22T05:58:09.311Z,4.94
2022-09-22T06:00:38.266Z,4.95
2022-09-22T06:03:07.158Z,4.99
2022-09-22T06:05:38.150Z,5.00
2022-09-22T06:08:08.252Z,5.02
2022-09-22T06:10:39.099Z,3.57
2022-09-22T06:13:11.156Z,4.80
2022-09-22T06:15:40.225Z,5.10
2022-09-22T06:18:14.918Z,5.16
2022-09-22T06:20:44.728Z,5.22
2022-09-22T06:23:15.669Z,5.12
2022-09-22T06:25:44.408Z,5.34
2022-09-22T06:28:15.839Z,5.17
2022-09-22T06:30:44.559Z,5.43
2022-09-22T06:33:13.254Z,5.32
2022-09-22T06:35:43.138Z,5.53
2022-09-22T06:38:15.800Z,5.44
2022-09-22T06:40:45.418Z,5.67
2022-09-22T06:43:23.085Z,5.73
2022-09-22T06:45:52.477Z,5.78
2022-09-22T06:48:24.073Z,5.72
2022-09-22T06:50:54.992Z,5.92
2022-09-22T06:53:26.992Z,5.99
2022-09-22T06:55:55.856Z,6.06
2022-09-22T06:58:26.332Z,6.13
2022-09-22T07:00:54.857Z,6.07
2022-09-22T07:03:24.541Z,6.28
2022-09-22T07:05:56.780Z,6.34
2022-09-22T07:08:27.004Z,6.40
2022-09-22T07:10:57.005Z,6.47
2022-09-22T07:13:29.869Z,6.50
2022-09-22T07:16:01.674Z,6.56
2022-09-22T07:18:30.432Z,6.36
2022-09-22T07:21:03.870Z,6.67
2022-09-22T07:23:34.869Z,6.73
2022-09-22T07:26:04.933Z,6.61
2022-09-22T07:28:36.575Z,6.87
2022-09-22T07:31:06.586Z,6.93
2022-09-22T07:33:35.599Z,7.02
2022-09-22T07:36:05.888Z,7.07
2022-09-22T07:38:37.084Z,7.13
2022-09-22T07:41:07.581Z,7.05
2022-09-22T07:43:37.711Z,6.99
2022-09-22T07:46:06.791Z,7.35
2022-09-22T07:48:37.740Z,7.40
2022-09-22T07:51:12.974Z,7.49
2022-09-22T07:53:45.247Z,7.56
2022-09-22T07:56:15.272Z,7.56
2022-09-22T07:58:51.008Z,7.55
2022-09-22T08:01:20.983Z,7.76
2022-09-22T08:03:49.522Z,7.87
2022-09-22T08:06:20.227Z,7.74
2022-09-22T08:08:53.770Z,8.02
2022-09-22T08:11:24.761Z,8.10
2022-09-22T08:13:57.304Z,8.20
2022-09-22T08:16:28.511Z,8.28
2022-09-22T08:18:58.083Z,8.38
2022-09-22T08:21:27.307Z,8.43
2022-09-22T08:23:55.803Z,8.42
2022-09-22T08:26:24.387Z,8.34
2022-09-22T08:28:55.147Z,8.15
2022-09-22T08:31:24.445Z,8.73
2022-09-22T08:33:53.403Z,8.90
2022-09-22T08:36:22.879Z,8.93
2022-09-22T08:38:51.942Z,9.00
2022-09-22T08:41:28.046Z,9.07
2022-09-22T08:44:00.715Z,9.06
2022-09-22T08:46:31.629Z,9.19
2022-09-22T08:49:23.868Z,9.25
2022-09-22T08:51:56.412Z,9.32
2022-09-22T08:54:28.977Z,9.32
2022-09-22T08:57:19.791Z,9.51
2022-09-22T08:59:54.244Z,9.70
2022-09-22T09:02:42.219Z,9.72
2022-09-22T09:05:49.591Z,9.77
2022-09-22T09:08:41.700Z,9.85
2022-09-22T09:14:08.763Z,10.17
2022-09-22T09:16:47.521Z,10.27
2022-09-22T09:19:20.636Z,10.21
2022-09-22T09:21:55.397Z,9.18
2022-09-22T09:27:24.721Z,10.50
2022-09-22T09:30:01.667Z,10.47
2022-09-22T09:32:40.347Z,10.25
2022-09-22T09:35:14.652Z,10.51
2022-09-22T09:37:44.729Z,10.54
2022-09-22T09:40:18.449Z,10.58
2022-09-22T09:42:49.176Z,10.59
2022-09-22T09:45:24.170Z,10.55
2022-09-22T09:48:07.152Z,10.53
2022-09-22T09:50:38.116Z,10.54
2022-09-22T09:53:08.689Z,10.71
2022-09-22T09:55:37.127Z,10.72
2022-09-22T09:58:35.435Z,10.62
2022-09-22T10:01:03.487Z,10.89
2022-09-22T10:03:36.594Z,10.79
2022-09-22T10:06:07.917Z,10.96
2022-09-22T10:08:45.024Z,10.95
2022-09-22T10:11:15.241Z,10.92
2022-09-22T10:13:45.922Z,10.93
2022-09-22T10:16:23.189Z,10.79
2022-09-22T10:19:03.880Z,10.83
2022-09-22T10:21:32.436Z,11.09
2022-09-22T10:24:02.079Z,11.22
2022-09-22T10:26:33.371Z,11.28
2022-09-22T10:29:18.371Z,10.86
2022-09-22T10:32:15.082Z,11.30
2022-09-22T10:34:47.029Z,11.40
2022-09-22T10:37:17.047Z,11.47
2022-09-22T10:39:48.396Z,11.45
2022-09-22T10:42:35.043Z,11.32
2022-09-22T10:45:07.243Z,11.51
2022-09-22T10:47:51.524Z,11.58
2022-09-22T10:50:53.080Z,11.68
2022-09-22T10:53:37.850Z,11.83
2022-09-22T10:56:14.975Z,11.92
2022-09-22T10:59:09.480Z,11.96
2022-09-22T11:01:54.068Z,11.83
2022-09-22T11:04:45.301Z,11.87
2022-09-22T11:07:55.624Z,11.63
2022-09-22T11:10:53.367Z,11.84
2022-09-22T11:13:36.607Z,11.94
2022-09-22T11:16:22.634Z,12.14
2022-09-22T11:19:19.547Z,12.30
2022-09-22T11:22:04.328Z,12.40
2022-09-22T11:24:47.385Z,12.45
2022-09-22T11:27:23.981Z,12.58
2022-09-22T11:30:11.304Z,12.67
2022-09-22T11:33:12.116Z,12.70
2022-09-22T11:35:57.555Z,12.65
2022-09-22T11:38:39.572Z,12.52
2022-09-22T11:41:26.124Z,12.82
2022-09-22T11:44:11.667Z,12.85
2022-09-22T11:46:59.641Z,13.13
2022-09-22T11:49:40.167Z,13.24
2022-09-22T11:52:22.787Z,12.87
2022-09-22T11:55:10.163Z,13.54
2022-09-22T11:57:45.618Z,13.29
2022-09-22T12:00:17.652Z,13.68
2022-09-22T12:02:51.041Z,13.81
2022-09-22T12:05:27.115Z,13.91
2022-09-22T12:07:59.936Z,13.99
2022-09-22T12:10:35.950Z,14.05
2022-09-22T12:13:11.202Z,14.10
2022-09-22T12:15:49.309Z,14.21
2022-09-22T12:18:25.492Z,14.30
2022-09-22T12:21:00.052Z,14.35
2022-09-22T12:23:40.526Z,14.45
2022-09-22T12:26:11.296Z,14.46
2022-09-22T12:28:43.633Z,14.51
2022-09-22T12:31:15.465Z,14.57
2022-09-22T12:33:49.094Z,14.54
2022-09-22T12:36:18.936Z,14.77
2022-09-22T12:38:47.900Z,14.81
2022-09-22T12:41:21.515Z,14.86
2022-09-22T12:43:50.937Z,14.83
2022-09-22T12:46:28.120Z,14.43
2022-09-22T12:48:56.640Z,14.81
2022-09-22T12:51:34.174Z,15.06
2022-09-22T12:54:48.309Z,15.15
2022-09-22T12:57:45.060Z,15.17
2022-09-22T13:00:39.805Z,15.24
2022-09-22T13:03:42.227Z,15.32
2022-09-22T13:06:43.644Z,15.23
2022-09-22T13:09:24.395Z,15.09
2022-09-22T13:12:28.242Z,15.05
2022-09-22T13:15:24.928Z,15.06
2022-09-22T13:17:55.201Z,14.90
2022-09-22T13:20:32.023Z,14.77
2022-09-22T13:23:05.966Z,14.64
2022-09-22T13:25:34.556Z,14.57
2022-09-22T13:28:12.054Z,14.38
2022-09-22T13:30:42.497Z,14.66
2022-09-22T13:33:24.231Z,14.66
2022-09-22T13:36:03.680Z,14.78
2022-09-22T13:38:34.918Z,14.62
2022-09-22T13:41:04.630Z,14.47
2022-09-22T13:43:37.487Z,14.76
2022-09-22T13:46:07.732Z,14.74
2022-09-22T13:48:39.791Z,14.66
2022-09-22T13:51:10.567Z,14.42
2022-09-22T13:53:40.051Z,14.41
2022-09-22T13:56:21.365Z,14.20
2022-09-22T13:58:52.403Z,14.19
2022-09-22T14:01:22.818Z,14.01
2022-09-22T14:03:54.036Z,13.82
2022-09-22T14:06:25.073Z,13.75
2022-09-22T14:08:55.224Z,13.85
2022-09-22T14:11:26.028Z,13.58
2022-09-22T14:14:02.383Z,13.99
2022-09-22T14:16:37.301Z,13.95
2022-09-22T14:19:15.339Z,14.04
2022-09-22T14:21:50.870Z,14.03
2022-09-22T14:24:20.019Z,14.11
2022-09-22T14:26:51.008Z,14.16
2022-09-22T14:29:24.830Z,14.15
2022-09-22T14:32:00.485Z,14.09
2022-09-22T14:34:33.053Z,13.88
2022-09-22T14:37:11.690Z,14.00
2022-09-22T14:39:42.411Z,13.58
2022-09-22T14:42:17.920Z,13.70
2022-09-22T14:44:48.858Z,13.80
2022-09-22T14:47:27.103Z,13.78
2022-09-22T14:50:11.459Z,13.69
2022-09-22T14:52:44.736Z,13.68
2022-09-22T14:55:21.886Z,13.51
2022-09-22T14:57:52.669Z,13.60
2022-09-22T15:00:38.492Z,13.55
2022-09-22T15:03:21.624Z,13.51
2022-09-22T15:05:51.692Z,13.45
2022-09-22T15:08:25.304Z,13.55
2022-09-22T15:10:55.384Z,13.50
2022-09-22T15:13:38.123Z,13.45
2022-09-22T15:16:07.760Z,13.16
2022-09-22T15:18:36.271Z,13.40
2022-09-22T15:21:12.868Z,13.38
2022-09-22T15:23:45.011Z,13.26
2022-09-22T15:26:20.672Z,13.21
2022-09-22T15:28:52.772Z,13.19
2022-09-22T15:31:26.859Z,13.21
2022-09-22T15:33:56.372Z,13.12
2022-09-22T15:36:26.748Z,13.11
2022-09-22T15:39:00.118Z,13.05
2022-09-22T15:41:29.258Z,12.98
2022-09-22T15:43:58.052Z,12.92
2022-09-22T15:46:34.068Z,12.91
2022-09-22T15:49:06.445Z,12.88
2022-09-22T15:51:37.148Z,12.55
2022-09-22T15:54:14.407Z,12.73
2022-09-22T15:56:43.283Z,12.69
2022-09-22T15:59:18.940Z,12.66
2022-09-22T16:01:47.514Z,12.26
2022-09-22T16:04:16.440Z,12.59
2022-09-22T16:06:54.412Z,12.49
2022-09-22T16:09:23.151Z,12.41
2022-09-22T16:11:51.975Z,12.43
2022-09-22T16:14:22.339Z,12.40
2022-09-22T16:16:52.524Z,12.14
2022-09-22T16:19:21.219Z,12.35
2022-09-22T16:21:54.259Z,12.36
2022-09-22T16:24:23.240Z,12.30
2022-09-22T16:26:52.720Z,12.23
2022-09-22T16:29:21.342Z,12.06
2022-09-22T16:31:50.166Z,12.17
2022-09-22T16:34:18.781Z,12.16
2022-09-22T16:36:47.692Z,12.15
2022-09-22T16:39:18.852Z,12.12
2022-09-22T16:41:48.267Z,12.01
2022-09-22T16:44:17.087Z,12.01
2022-09-22T16:46:45.690Z,11.82
2022-09-22T16:49:16.464Z,11.96
2022-09-22T16:51:46.881Z,11.59
2022-09-22T16:54:17.872Z,11.86
2022-09-22T16:56:47.436Z,11.83
2022-09-22T16:59:18.128Z,11.79
2022-09-22T17:01:47.057Z,11.74
2022-09-22T17:04:18.691Z,11.68
2022-09-22T17:06:48.279Z,11.62
2022-09-22T17:09:19.083Z,11.58
2022-09-22T17:11:49.322Z,11.45
2022-09-22T17:14:22.214Z,11.45
2022-09-22T17:16:52.430Z,11.27
2022-09-22T17:19:22.361Z,11.19
2022-09-22T17:21:55.557Z,10.57
2022-09-22T17:24:26.666Z,11.14
2022-09-22T17:26:56.949Z,11.11
2022-09-22T17:29:27.090Z,11.06
2022-09-22T17:31:58.007Z,11.04
2022-09-22T17:34:29.021Z,11.00
2022-09-22T17:36:58.215Z,10.94
2022-09-22T17:39:29.744Z,10.89
2022-09-22T17:41:58.625Z,10.80
2022-09-22T17:44:28.719Z,9.28
2022-09-22T17:47:14.181Z,10.70
2022-09-22T17:49:59.678Z,10.65
2022-09-22T17:52:42.247Z,10.59
2022-09-22T17:55:16.704Z,10.37
2022-09-22T17:58:52.742Z,10.05
2022-09-22T18:01:22.973Z,10.30
2022-09-22T18:03:53.104Z,10.05
2022-09-22T18:06:22.677Z,10.17
2022-09-22T18:08:53.135Z,10.20
2022-09-22T18:11:28.132Z,10.01
2022-09-22T18:13:57.991Z,9.96
2022-09-22T18:16:33.673Z,10.03
2022-09-22T18:19:05.847Z,9.91
2022-09-22T18:21:36.273Z,9.95
2022-09-22T18:24:07.359Z,9.91
2022-09-22T18:26:43.707Z,9.87
2022-09-22T18:29:15.138Z,9.70
2022-09-22T18:31:45.953Z,9.79
2022-09-22T18:34:16.927Z,9.75
2022-09-22T18:36:48.536Z,9.66
2022-09-22T18:39:19.269Z,9.60
2022-09-22T18:41:50.997Z,9.57
2022-09-22T18:44:20.637Z,9.48
2022-09-22T18:46:50.557Z,9.43
2022-09-22T18:49:19.267Z,9.17
2022-09-22T18:51:50.540Z,9.31
2022-09-22T18:54:21.967Z,9.07
2022-09-22T18:56:52.433Z,9.20
2022-09-22T18:59:23.601Z,9.18
2022-09-22T19:01:53.757Z,9.14
2022-09-22T19:04:25.666Z,9.02
2022-09-22T19:07:14.413Z,9.05
2022-09-22T19:09:44.962Z,8.94
2022-09-22T19:12:17.032Z,8.67
2022-09-22T19:14:46.864Z,8.83
2022-09-22T19:17:17.704Z,8.86
2022-09-22T19:19:48.184Z,8.29
2022-09-22T19:22:18.288Z,8.76
2022-09-22T19:24:48.322Z,8.74
2022-09-22T19:30:11.653Z,8.66
2022-09-22T19:32:42.679Z,7.99
2022-09-22T19:35:12.846Z,8.57
2022-09-22T19:37:42.795Z,8.53
2022-09-22T19:40:19.120Z,8.45
2022-09-22T19:42:48.862Z,8.41
2022-09-22T19:45:20.202Z,8.33
2022-09-22T19:47:49.975Z,8.23
2022-09-22T19:50:20.558Z,8.31
2022-09-22T19:52:51.417Z,8.01
2022-09-22T19:55:22.676Z,8.19
2022-09-22T19:57:52.882Z,8.14
2022-09-22T20:00:26.970Z,7.86
2022-09-22T20:03:00.354Z,8.10
2022-09-22T20:05:32.150Z,8.08
2022-09-22T20:08:01.789Z,8.02
2022-09-22T20:11:16.332Z,7.99
2022-09-22T20:14:02.215Z,7.73
2022-09-22T20:16:32.939Z,7.94
2022-09-22T20:19:01.384Z,7.36
2022-09-22T20:21:30.580Z,7.89
2022-09-22T20:23:58.939Z,7.85
2022-09-22T20:26:27.451Z,7.84
2022-09-22T20:28:57.081Z,7.81
2022-09-22T20:31:25.554Z,7.80
2022-09-22T20:33:56.084Z,7.76
2022-09-22T20:36:24.632Z,7.74
2022-09-22T20:38:53.583Z,7.72
2022-09-22T20:41:23.742Z,7.63
2022-09-22T20:43:52.632Z,7.65
2022-09-22T20:46:21.513Z,7.60
2022-09-22T20:48:49.926Z,7.58
2022-09-22T20:51:19.670Z,7.55
2022-09-22T20:53:48.489Z,7.10
2022-09-22T20:56:16.995Z,7.42
2022-09-22T20:58:47.260Z,7.45
2022-09-22T21:01:18.503Z,7.41
2022-09-22T21:03:46.839Z,7.29
2022-09-22T21:06:16.053Z,7.28
2022-09-22T21:09:18.167Z,7.24
2022-09-22T21:11:47.155Z,7.17
2022-09-22T21:14:16.170Z,7.20
2022-09-22T21:16:45.087Z,7.21
2022-09-22T21:19:13.524Z,7.02
2022-09-22T21:21:41.973Z,7.09
2022-09-22T21:24:11.763Z,7.08
2022-09-22T21:26:40.164Z,7.04
2022-09-22T21:29:09.689Z,7.00
2022-09-22T21:31:38.916Z,6.98
2022-09-22T21:34:07.306Z,6.88
2022-09-22T21:36:36.589Z,6.90
2022-09-22T21:39:05.112Z,6.83
2022-09-22T21:41:35.560Z,6.73
2022-09-22T21:44:05.288Z,6.59
2022-09-22T21:46:36.261Z,6.62
2022-09-22T21:49:06.968Z,6.77
2022-09-22T21:51:36.679Z,6.75
2022-09-22T21:54:07.329Z,6.45
2022-09-22T21:56:37.344Z,6.72
2022-09-22T21:59:05.931Z,6.69
2022-09-22T22:01:36.657Z,6.66
2022-09-22T22:04:08.597Z,6.65
2022-09-22T22:06:40.963Z,6.62
2022-09-22T22:09:14.778Z,6.54
2022-09-22T22:11:45.531Z,6.43
2022-09-22T22:14:15.720Z,6.44
2022-09-22T22:16:45.860Z,6.32
2022-09-22T22:19:15.593Z,6.41
2022-09-22T22:21:44.646Z,6.42
2022-09-22T22:24:29.136Z,6.40
2022-09-22T22:27:01.628Z,6.34
2022-09-22T22:29:32.464Z,6.31
2022-09-22T22:32:01.032Z,5.77
2022-09-22T22:34:29.468Z,6.14
2022-09-22T22:36:59.360Z,6.15
2022-09-22T22:39:28.122Z,6.22
2022-09-22T22:41:56.484Z,6.20
2022-09-22T22:44:26.754Z,6.15
2022-09-22T22:46:55.159Z,6.11
2022-09-22T22:49:24.160Z,6.06
2022-09-22T22:51:52.797Z,6.10
2022-09-22T22:54:21.225Z,6.06
2022-09-22T22:56:51.523Z,6.06
2022-09-22T22:59:20.929Z,6.02
2022-09-22T23:01:50.913Z,6.00
2022-09-22T23:04:19.591Z,5.94
2022-09-22T23:06:48.617Z,5.91
2022-09-22T23:09:19.048Z,5.91
2022-09-22T23:11:47.963Z,5.85
2022-09-22T23:14:17.263Z,5.82
2022-09-22T23:16:47.403Z,5.80
2022-09-22T23:19:19.652Z,5.67
2022-09-22T23:21:48.165Z,5.59
2022-09-22T23:24:19.263Z,5.74
2022-09-22T23:26:48.645Z,5.74
2022-09-22T23:29:17.150Z,5.56
2022-09-22T23:31:46.064Z,5.68
2022-09-22T23:34:14.545Z,5.70
2022-09-22T23:36:44.981Z,5.66
2022-09-22T23:39:13.844Z,5.65
2022-09-22T23:41:43.206Z,5.65
2022-09-22T23:44:12.527Z,5.61
2022-09-22T23:46:41.270Z,5.40
2022-09-22T23:49:09.594Z,5.62
2022-09-22T23:51:38.284Z,5.57
2022-09-22T23:54:08.948Z,5.60
2022-09-22T23:56:37.997Z,5.29
2022-09-22T23:59:06.714Z,5.56
